sensor_id;sensor_type;location;lat;lon;timestamp;P1;durP1;ratioP1;P2;durP2;ratioP2
25207;SDS011;13153;52.316;21.166;2022-11-20T00:01:26;86.82;;;36.05;;
25207;SDS011;13153;52.316;21.166;2022-11-20T00:03:54;81.43;;;37.13;;
25207;SDS011;13153;52.316;21.166;2022-11-20T00:06:23;81.35;;;35.70;;
25207;SDS011;13153;52.316;21.166;2022-11-20T00:08:49;83.10;;;35.78;;
25207;SDS011;13153;52.316;21.166;2022-11-20T00:11:19;81.43;;;37.45;;
25207;SDS011;13153;52.316;21.166;2022-11-20T00:13:48;84.63;;;36.13;;
25207;SDS011;13153;52.316;21.166;2022-11-20T00:16:18;80.97;;;36.65;;
25207;SDS011;13153;52.316;21.166;2022-11-20T00:18:46;82.10;;;35.65;;
25207;SDS011;13153;52.316;21.166;2022-11-20T00:21:16;88.80;;;36.90;;
25207;SDS011;13153;52.316;21.166;2022-11-20T00:23:48;82.93;;;36.45;;
25207;SDS011;13153;52.316;21.166;2022-11-20T00:26:17;82.10;;;35.80;;
25207;SDS011;13153;52.316;21.166;2022-11-20T00:28:48;88.95;;;36.65;;
25207;SDS011;13153;52.316;21.166;2022-11-20T00:31:17;84.55;;;36.58;;
25207;SDS011;13153;52.316;21.166;2022-11-20T00:33:43;89.30;;;36.05;;
25207;SDS011;13153;52.316;21.166;2022-11-20T00:36:11;82.57;;;34.90;;
25207;SDS011;13153;52.316;21.166;2022-11-20T00:38:40;85.80;;;36.80;;
25207;SDS011;13153;52.316;21.166;2022-11-20T00:41:08;80.22;;;35.92;;
25207;SDS011;13153;52.316;21.166;2022-11-20T00:43:37;86.70;;;35.72;;
25207;SDS011;13153;52.316;21.166;2022-11-20T00:46:07;86.43;;;36.47;;
25207;SDS011;13153;52.316;21.166;2022-11-20T00:48:37;86.25;;;35.92;;
25207;SDS011;13153;52.316;21.166;2022-11-20T00:51:03;85.60;;;36.08;;
25207;SDS011;13153;52.316;21.166;2022-11-20T00:53:29;83.88;;;36.38;;
25207;SDS011;13153;52.316;21.166;2022-11-20T00:55:56;81.80;;;36.72;;
25207;SDS011;13153;52.316;21.166;2022-11-20T00:58:29;83.72;;;35.38;;
25207;SDS011;13153;52.316;21.166;2022-11-20T01:01:09;79.85;;;35.47;;
25207;SDS011;13153;52.316;21.166;2022-11-20T01:03:41;80.20;;;34.55;;
25207;SDS011;13153;52.316;21.166;2022-11-20T01:06:11;86.47;;;36.75;;
25207;SDS011;13153;52.316;21.166;2022-11-20T01:08:39;80.38;;;35.60;;
25207;SDS011;13153;52.316;21.166;2022-11-20T01:11:07;81.32;;;36.67;;
25207;SDS011;13153;52.316;21.166;2022-11-20T01:13:38;85.53;;;36.65;;
25207;SDS011;13153;52.316;21.166;2022-11-20T01:16:10;89.28;;;36.25;;
25207;SDS011;13153;52.316;21.166;2022-11-20T01:18:36;86.90;;;36.97;;
25207;SDS011;13153;52.316;21.166;2022-11-20T01:21:06;84.35;;;36.63;;
25207;SDS011;13153;52.316;21.166;2022-11-20T01:23:56;81.75;;;36.70;;
25207;SDS011;13153;52.316;21.166;2022-11-20T01:26:24;79.13;;;36.53;;
25207;SDS011;13153;52.316;21.166;2022-11-20T01:28:53;82.68;;;35.10;;
25207;SDS011;13153;52.316;21.166;2022-11-20T01:31:25;79.13;;;34.95;;
25207;SDS011;13153;52.316;21.166;2022-11-20T01:33:57;84.80;;;35.90;;
25207;SDS011;13153;52.316;21.166;2022-11-20T01:36:29;81.07;;;34.55;;
25207;SDS011;13153;52.316;21.166;2022-11-20T01:38:58;80.60;;;34.60;;
25207;SDS011;13153;52.316;21.166;2022-11-20T01:41:28;79.32;;;34.55;;
25207;SDS011;13153;52.316;21.166;2022-11-20T01:44:15;77.15;;;34.45;;
25207;SDS011;13153;52.316;21.166;2022-11-20T01:47:18;78.63;;;35.08;;
25207;SDS011;13153;52.316;21.166;2022-11-20T01:49:48;84.18;;;35.75;;
25207;SDS011;13153;52.316;21.166;2022-11-20T01:52:34;85.35;;;34.80;;
25207;SDS011;13153;52.316;21.166;2022-11-20T01:55:17;86.85;;;36.70;;
25207;SDS011;13153;52.316;21.166;2022-11-20T01:57:50;84.78;;;35.55;;
25207;SDS011;13153;52.316;21.166;2022-11-20T02:00:17;84.90;;;35.80;;
25207;SDS011;13153;52.316;21.166;2022-11-20T02:02:47;80.53;;;34.72;;
25207;SDS011;13153;52.316;21.166;2022-11-20T02:05:43;88.25;;;35.83;;
25207;SDS011;13153;52.316;21.166;2022-11-20T02:08:35;81.25;;;34.75;;
25207;SDS011;13153;52.316;21.166;2022-11-20T02:11:03;81.53;;;34.80;;
25207;SDS011;13153;52.316;21.166;2022-11-20T02:13:28;81.97;;;35.40;;
25207;SDS011;13153;52.316;21.166;2022-11-20T02:16:13;76.72;;;33.40;;
25207;SDS011;13153;52.316;21.166;2022-11-20T02:18:54;76.75;;;34.80;;
25207;SDS011;13153;52.316;21.166;2022-11-20T02:21:37;77.22;;;34.03;;
25207;SDS011;13153;52.316;21.166;2022-11-20T02:24:17;84.53;;;35.45;;
25207;SDS011;13153;52.316;21.166;2022-11-20T02:29:37;82.60;;;34.88;;
25207;SDS011;13153;52.316;21.166;2022-11-20T02:32:23;88.05;;;36.17;;
25207;SDS011;13153;52.316;21.166;2022-11-20T02:34:52;82.75;;;36.33;;
25207;SDS011;13153;52.316;21.166;2022-11-20T02:37:18;80.85;;;35.28;;
25207;SDS011;13153;52.316;21.166;2022-11-20T02:39:46;79.00;;;35.03;;
25207;SDS011;13153;52.316;21.166;2022-11-20T02:42:14;79.45;;;34.22;;
25207;SDS011;13153;52.316;21.166;2022-11-20T02:44:40;76.97;;;34.70;;
25207;SDS011;13153;52.316;21.166;2022-11-20T02:47:06;79.25;;;35.17;;
25207;SDS011;13153;52.316;21.166;2022-11-20T02:49:32;79.30;;;34.92;;
25207;SDS011;13153;52.316;21.166;2022-11-20T02:51:58;81.95;;;36.67;;
25207;SDS011;13153;52.316;21.166;2022-11-20T02:54:23;80.25;;;36.10;;
25207;SDS011;13153;52.316;21.166;2022-11-20T02:56:49;83.30;;;36.60;;
25207;SDS011;13153;52.316;21.166;2022-11-20T02:59:16;73.68;;;34.60;;
25207;SDS011;13153;52.316;21.166;2022-11-20T03:01:42;82.43;;;35.33;;
25207;SDS011;13153;52.316;21.166;2022-11-20T03:04:07;79.60;;;35.42;;
25207;SDS011;13153;52.316;21.166;2022-11-20T03:06:33;80.80;;;34.50;;
25207;SDS011;13153;52.316;21.166;2022-11-20T03:08:59;81.97;;;35.92;;
25207;SDS011;13153;52.316;21.166;2022-11-20T03:11:25;83.45;;;36.47;;
25207;SDS011;13153;52.316;21.166;2022-11-20T03:13:51;85.05;;;37.17;;
25207;SDS011;13153;52.316;21.166;2022-11-20T03:16:18;82.78;;;36.33;;
25207;SDS011;13153;52.316;21.166;2022-11-20T03:18:46;86.55;;;36.85;;
25207;SDS011;13153;52.316;21.166;2022-11-20T03:21:12;86.18;;;36.85;;
25207;SDS011;13153;52.316;21.166;2022-11-20T03:23:40;84.78;;;35.95;;
25207;SDS011;13153;52.316;21.166;2022-11-20T03:26:07;85.72;;;36.00;;
25207;SDS011;13153;52.316;21.166;2022-11-20T03:28:40;86.03;;;36.67;;
25207;SDS011;13153;52.316;21.166;2022-11-20T03:31:12;88.25;;;35.97;;
25207;SDS011;13153;52.316;21.166;2022-11-20T03:33:40;82.38;;;36.70;;
25207;SDS011;13153;52.316;21.166;2022-11-20T03:36:08;76.05;;;33.90;;
25207;SDS011;13153;52.316;21.166;2022-11-20T03:38:37;82.32;;;35.95;;
25207;SDS011;13153;52.316;21.166;2022-11-20T03:41:07;79.05;;;35.88;;
25207;SDS011;13153;52.316;21.166;2022-11-20T03:43:38;84.38;;;37.28;;
25207;SDS011;13153;52.316;21.166;2022-11-20T03:46:04;82.45;;;37.33;;
25207;SDS011;13153;52.316;21.166;2022-11-20T03:48:31;84.22;;;37.28;;
25207;SDS011;13153;52.316;21.166;2022-11-20T03:51:10;83.22;;;37.13;;
25207;SDS011;13153;52.316;21.166;2022-11-20T03:53:38;89.28;;;37.33;;
25207;SDS011;13153;52.316;21.166;2022-11-20T03:56:05;88.40;;;37.83;;
25207;SDS011;13153;52.316;21.166;2022-11-20T03:58:32;87.25;;;36.30;;
25207;SDS011;13153;52.316;21.166;2022-11-20T04:01:08;85.35;;;37.53;;
25207;SDS011;13153;52.316;21.166;2022-11-20T04:03:38;79.47;;;36.28;;
25207;SDS011;13153;52.316;21.166;2022-11-20T04:06:07;87.60;;;36.80;;
25207;SDS011;13153;52.316;21.166;2022-11-20T04:08:39;84.22;;;38.15;;
25207;SDS011;13153;52.316;21.166;2022-11-20T04:11:14;86.88;;;38.88;;
25207;SDS011;13153;52.316;21.166;2022-11-20T04:13:46;88.13;;;36.88;;
25207;SDS011;13153;52.316;21.166;2022-11-20T04:16:15;81.10;;;35.95;;
25207;SDS011;13153;52.316;21.166;2022-11-20T04:18:42;82.43;;;36.72;;
25207;SDS011;13153;52.316;21.166;2022-11-20T04:21:08;81.20;;;35.83;;
25207;SDS011;13153;52.316;21.166;2022-11-20T04:23:35;84.50;;;36.92;;
25207;SDS011;13153;52.316;21.166;2022-11-20T04:26:04;86.60;;;36.13;;
25207;SDS011;13153;52.316;21.166;2022-11-20T04:28:33;83.03;;;35.72;;
25207;SDS011;13153;52.316;21.166;2022-11-20T04:31:03;85.13;;;36.28;;
25207;SDS011;13153;52.316;21.166;2022-11-20T04:33:32;83.22;;;36.45;;
25207;SDS011;13153;52.316;21.166;2022-11-20T04:36:00;79.57;;;35.92;;
25207;SDS011;13153;52.316;21.166;2022-11-20T04:38:36;84.70;;;36.78;;
25207;SDS011;13153;52.316;21.166;2022-11-20T04:41:04;88.05;;;36.63;;
25207;SDS011;13153;52.316;21.166;2022-11-20T04:43:32;80.45;;;35.17;;
25207;SDS011;13153;52.316;21.166;2022-11-20T04:45:58;90.07;;;36.60;;
25207;SDS011;13153;52.316;21.166;2022-11-20T04:48:25;86.00;;;36.67;;
25207;SDS011;13153;52.316;21.166;2022-11-20T04:50:52;83.30;;;36.42;;
25207;SDS011;13153;52.316;21.166;2022-11-20T04:53:19;84.28;;;34.70;;
25207;SDS011;13153;52.316;21.166;2022-11-20T04:55:46;82.05;;;36.38;;
25207;SDS011;13153;52.316;21.166;2022-11-20T04:58:12;75.43;;;35.38;;
25207;SDS011;13153;52.316;21.166;2022-11-20T05:00:39;76.72;;;34.72;;
25207;SDS011;13153;52.316;21.166;2022-11-20T05:03:05;86.43;;;35.45;;
25207;SDS011;13153;52.316;21.166;2022-11-20T05:05:33;81.82;;;35.10;;
25207;SDS011;13153;52.316;21.166;2022-11-20T05:07:59;76.57;;;34.22;;
25207;SDS011;13153;52.316;21.166;2022-11-20T05:10:26;81.07;;;36.10;;
25207;SDS011;13153;52.316;21.166;2022-11-20T05:12:51;73.60;;;33.58;;
25207;SDS011;13153;52.316;21.166;2022-11-20T05:15:17;74.68;;;34.75;;
25207;SDS011;13153;52.316;21.166;2022-11-20T05:17:50;77.38;;;34.75;;
25207;SDS011;13153;52.316;21.166;2022-11-20T05:20:17;78.00;;;33.70;;
25207;SDS011;13153;52.316;21.166;2022-11-20T05:22:44;80.65;;;34.72;;
25207;SDS011;13153;52.316;21.166;2022-11-20T05:25:11;76.25;;;33.85;;
25207;SDS011;13153;52.316;21.166;2022-11-20T05:27:37;79.32;;;33.83;;
25207;SDS011;13153;52.316;21.166;2022-11-20T05:30:03;79.72;;;35.40;;
25207;SDS011;13153;52.316;21.166;2022-11-20T05:32:31;79.13;;;34.47;;
25207;SDS011;13153;52.316;21.166;2022-11-20T05:34:56;75.63;;;34.88;;
25207;SDS011;13153;52.316;21.166;2022-11-20T05:37:22;74.45;;;34.08;;
25207;SDS011;13153;52.316;21.166;2022-11-20T05:39:48;84.68;;;34.17;;
25207;SDS011;13153;52.316;21.166;2022-11-20T05:42:14;77.18;;;34.45;;
25207;SDS011;13153;52.316;21.166;2022-11-20T05:44:55;77.40;;;34.40;;
25207;SDS011;13153;52.316;21.166;2022-11-20T05:47:22;79.30;;;34.63;;
25207;SDS011;13153;52.316;21.166;2022-11-20T05:49:48;82.63;;;33.85;;
25207;SDS011;13153;52.316;21.166;2022-11-20T05:52:14;81.30;;;34.97;;
25207;SDS011;13153;52.316;21.166;2022-11-20T05:54:40;81.40;;;35.58;;
25207;SDS011;13153;52.316;21.166;2022-11-20T05:57:05;81.53;;;35.20;;
25207;SDS011;13153;52.316;21.166;2022-11-20T05:59:31;79.93;;;35.40;;
25207;SDS011;13153;52.316;21.166;2022-11-20T06:01:57;83.30;;;34.50;;
25207;SDS011;13153;52.316;21.166;2022-11-20T06:04:22;74.03;;;33.97;;
25207;SDS011;13153;52.316;21.166;2022-11-20T06:06:48;79.85;;;35.30;;
25207;SDS011;13153;52.316;21.166;2022-11-20T06:09:14;77.40;;;34.20;;
25207;SDS011;13153;52.316;21.166;2022-11-20T06:11:40;78.00;;;33.53;;
25207;SDS011;13153;52.316;21.166;2022-11-20T06:14:05;76.20;;;33.47;;
25207;SDS011;13153;52.316;21.166;2022-11-20T06:16:31;72.07;;;32.47;;
25207;SDS011;13153;52.316;21.166;2022-11-20T06:18:57;78.65;;;35.20;;
25207;SDS011;13153;52.316;21.166;2022-11-20T06:21:23;73.53;;;34.22;;
25207;SDS011;13153;52.316;21.166;2022-11-20T06:23:50;79.18;;;35.00;;
25207;SDS011;13153;52.316;21.166;2022-11-20T06:26:21;79.20;;;33.22;;
25207;SDS011;13153;52.316;21.166;2022-11-20T06:28:51;78.28;;;33.90;;
25207;SDS011;13153;52.316;21.166;2022-11-20T06:31:18;70.25;;;33.17;;
25207;SDS011;13153;52.316;21.166;2022-11-20T06:33:47;82.28;;;34.53;;
25207;SDS011;13153;52.316;21.166;2022-11-20T06:36:14;73.88;;;33.22;;
25207;SDS011;13153;52.316;21.166;2022-11-20T06:38:42;80.30;;;34.35;;
25207;SDS011;13153;52.316;21.166;2022-11-20T06:41:12;75.50;;;34.13;;
25207;SDS011;13153;52.316;21.166;2022-11-20T06:43:42;76.83;;;32.90;;
25207;SDS011;13153;52.316;21.166;2022-11-20T06:46:09;80.32;;;35.22;;
25207;SDS011;13153;52.316;21.166;2022-11-20T06:48:37;77.35;;;35.65;;
25207;SDS011;13153;52.316;21.166;2022-11-20T06:51:04;79.50;;;35.83;;
25207;SDS011;13153;52.316;21.166;2022-11-20T06:53:31;83.47;;;37.53;;
25207;SDS011;13153;52.316;21.166;2022-11-20T06:55:57;88.35;;;36.92;;
25207;SDS011;13153;52.316;21.166;2022-11-20T06:58:23;77.97;;;35.60;;
25207;SDS011;13153;52.316;21.166;2022-11-20T07:00:51;81.63;;;35.53;;
25207;SDS011;13153;52.316;21.166;2022-11-20T07:03:17;75.95;;;34.90;;
25207;SDS011;13153;52.316;21.166;2022-11-20T07:05:43;77.38;;;36.28;;
25207;SDS011;13153;52.316;21.166;2022-11-20T07:08:11;78.22;;;36.50;;
25207;SDS011;13153;52.316;21.166;2022-11-20T07:10:37;77.43;;;35.00;;
25207;SDS011;13153;52.316;21.166;2022-11-20T07:13:03;81.40;;;35.63;;
25207;SDS011;13153;52.316;21.166;2022-11-20T07:15:29;79.95;;;35.38;;
25207;SDS011;13153;52.316;21.166;2022-11-20T07:17:55;79.75;;;36.58;;
25207;SDS011;13153;52.316;21.166;2022-11-20T07:20:25;77.93;;;37.28;;
25207;SDS011;13153;52.316;21.166;2022-11-20T07:22:55;78.15;;;36.28;;
25207;SDS011;13153;52.316;21.166;2022-11-20T07:25:22;76.50;;;35.78;;
25207;SDS011;13153;52.316;21.166;2022-11-20T07:27:50;76.50;;;36.20;;
25207;SDS011;13153;52.316;21.166;2022-11-20T07:30:18;70.35;;;34.83;;
25207;SDS011;13153;52.316;21.166;2022-11-20T07:32:47;74.63;;;34.78;;
25207;SDS011;13153;52.316;21.166;2022-11-20T07:35:17;74.93;;;35.47;;
25207;SDS011;13153;52.316;21.166;2022-11-20T07:37:44;72.97;;;33.88;;
25207;SDS011;13153;52.316;21.166;2022-11-20T07:40:11;70.72;;;33.80;;
25207;SDS011;13153;52.316;21.166;2022-11-20T07:42:47;77.00;;;34.80;;
25207;SDS011;13153;52.316;21.166;2022-11-20T07:45:18;68.28;;;32.60;;
25207;SDS011;13153;52.316;21.166;2022-11-20T07:47:44;68.35;;;33.17;;
25207;SDS011;13153;52.316;21.166;2022-11-20T07:50:10;72.60;;;33.60;;
25207;SDS011;13153;52.316;21.166;2022-11-20T07:52:37;68.32;;;32.35;;
25207;SDS011;13153;52.316;21.166;2022-11-20T07:55:03;66.78;;;33.20;;
25207;SDS011;13153;52.316;21.166;2022-11-20T07:57:30;65.90;;;32.15;;
25207;SDS011;13153;52.316;21.166;2022-11-20T07:59:55;79.05;;;36.33;;
25207;SDS011;13153;52.316;21.166;2022-11-20T08:02:21;77.63;;;33.60;;
25207;SDS011;13153;52.316;21.166;2022-11-20T08:04:47;69.07;;;33.05;;
25207;SDS011;13153;52.316;21.166;2022-11-20T08:07:13;65.57;;;33.92;;
25207;SDS011;13153;52.316;21.166;2022-11-20T08:09:39;68.00;;;30.83;;
25207;SDS011;13153;52.316;21.166;2022-11-20T08:12:04;67.18;;;32.38;;
25207;SDS011;13153;52.316;21.166;2022-11-20T08:17:15;57.85;;;28.85;;
25207;SDS011;13153;52.316;21.166;2022-11-20T08:19:40;60.47;;;29.92;;
25207;SDS011;13153;52.316;21.166;2022-11-20T08:22:06;62.90;;;29.63;;
25207;SDS011;13153;52.316;21.166;2022-11-20T08:24:32;65.10;;;30.77;;
25207;SDS011;13153;52.316;21.166;2022-11-20T08:26:58;60.58;;;30.60;;
25207;SDS011;13153;52.316;21.166;2022-11-20T08:29:25;66.97;;;32.10;;
25207;SDS011;13153;52.316;21.166;2022-11-20T08:31:52;64.55;;;32.30;;
25207;SDS011;13153;52.316;21.166;2022-11-20T08:34:18;65.35;;;32.13;;
25207;SDS011;13153;52.316;21.166;2022-11-20T08:36:43;61.25;;;30.23;;
25207;SDS011;13153;52.316;21.166;2022-11-20T08:39:12;65.22;;;31.55;;
25207;SDS011;13153;52.316;21.166;2022-11-20T08:41:39;61.08;;;31.15;;
25207;SDS011;13153;52.316;21.166;2022-11-20T08:44:05;64.35;;;31.25;;
25207;SDS011;13153;52.316;21.166;2022-11-20T08:46:36;66.07;;;31.90;;
25207;SDS011;13153;52.316;21.166;2022-11-20T08:49:06;63.50;;;31.67;;
25207;SDS011;13153;52.316;21.166;2022-11-20T08:51:36;63.90;;;32.17;;
25207;SDS011;13153;52.316;21.166;2022-11-20T08:54:03;63.88;;;31.48;;
25207;SDS011;13153;52.316;21.166;2022-11-20T08:56:29;62.70;;;33.05;;
25207;SDS011;13153;52.316;21.166;2022-11-20T08:58:56;63.88;;;32.38;;
25207;SDS011;13153;52.316;21.166;2022-11-20T09:01:22;72.82;;;34.88;;
25207;SDS011;13153;52.316;21.166;2022-11-20T09:03:48;71.50;;;34.08;;
25207;SDS011;13153;52.316;21.166;2022-11-20T09:06:15;80.53;;;37.70;;
25207;SDS011;13153;52.316;21.166;2022-11-20T09:08:41;70.30;;;34.03;;
25207;SDS011;13153;52.316;21.166;2022-11-20T09:11:07;72.07;;;35.08;;
25207;SDS011;13153;52.316;21.166;2022-11-20T09:13:34;65.93;;;33.60;;
25207;SDS011;13153;52.316;21.166;2022-11-20T09:16:05;64.28;;;32.17;;
25207;SDS011;13153;52.316;21.166;2022-11-20T09:18:33;71.07;;;34.88;;
25207;SDS011;13153;52.316;21.166;2022-11-20T09:21:03;67.10;;;32.95;;
25207;SDS011;13153;52.316;21.166;2022-11-20T09:23:32;64.15;;;32.15;;
25207;SDS011;13153;52.316;21.166;2022-11-20T09:26:07;61.85;;;31.98;;
25207;SDS011;13153;52.316;21.166;2022-11-20T09:28:37;60.67;;;30.58;;
25207;SDS011;13153;52.316;21.166;2022-11-20T09:31:04;61.33;;;32.25;;
25207;SDS011;13153;52.316;21.166;2022-11-20T09:33:39;58.72;;;30.85;;
25207;SDS011;13153;52.316;21.166;2022-11-20T09:36:05;59.60;;;30.60;;
25207;SDS011;13153;52.316;21.166;2022-11-20T09:38:31;59.08;;;30.85;;
25207;SDS011;13153;52.316;21.166;2022-11-20T09:40:57;59.75;;;31.38;;
25207;SDS011;13153;52.316;21.166;2022-11-20T09:43:51;62.60;;;31.60;;
25207;SDS011;13153;52.316;21.166;2022-11-20T09:46:45;60.13;;;29.83;;
25207;SDS011;13153;52.316;21.166;2022-11-20T09:51:59;62.65;;;30.88;;
25207;SDS011;13153;52.316;21.166;2022-11-20T09:54:41;62.33;;;30.60;;
25207;SDS011;13153;52.316;21.166;2022-11-20T09:57:11;62.92;;;30.83;;
25207;SDS011;13153;52.316;21.166;2022-11-20T09:59:48;60.05;;;30.90;;
25207;SDS011;13153;52.316;21.166;2022-11-20T10:08:07;64.22;;;32.17;;
25207;SDS011;13153;52.316;21.166;2022-11-20T10:11:06;59.92;;;31.70;;
25207;SDS011;13153;52.316;21.166;2022-11-20T10:13:52;60.35;;;30.98;;
25207;SDS011;13153;52.316;21.166;2022-11-20T10:19:31;63.88;;;31.25;;
25207;SDS011;13153;52.316;21.166;2022-11-20T10:25:16;62.55;;;31.83;;
25207;SDS011;13153;52.316;21.166;2022-11-20T10:28:07;61.35;;;31.20;;
25207;SDS011;13153;52.316;21.166;2022-11-20T10:31:02;64.20;;;31.73;;
25207;SDS011;13153;52.316;21.166;2022-11-20T10:33:36;70.38;;;32.22;;
25207;SDS011;13153;52.316;21.166;2022-11-20T10:36:47;64.30;;;31.90;;
25207;SDS011;13153;52.316;21.166;2022-11-20T10:39:17;58.67;;;30.45;;
25207;SDS011;13153;52.316;21.166;2022-11-20T10:41:54;60.88;;;32.08;;
25207;SDS011;13153;52.316;21.166;2022-11-20T10:44:24;61.45;;;31.42;;
25207;SDS011;13153;52.316;21.166;2022-11-20T10:47:16;61.55;;;30.42;;
25207;SDS011;13153;52.316;21.166;2022-11-20T10:49:44;59.80;;;30.27;;
25207;SDS011;13153;52.316;21.166;2022-11-20T11:00:38;57.47;;;29.58;;
25207;SDS011;13153;52.316;21.166;2022-11-20T11:03:14;65.43;;;31.50;;
25207;SDS011;13153;52.316;21.166;2022-11-20T11:06:17;68.72;;;33.70;;
25207;SDS011;13153;52.316;21.166;2022-11-20T11:09:04;59.95;;;31.08;;
25207;SDS011;13153;52.316;21.166;2022-11-20T11:11:42;63.45;;;32.05;;
25207;SDS011;13153;52.316;21.166;2022-11-20T11:14:09;64.75;;;33.78;;
25207;SDS011;13153;52.316;21.166;2022-11-20T11:16:48;65.25;;;32.20;;
25207;SDS011;13153;52.316;21.166;2022-11-20T11:19:20;66.63;;;32.05;;
25207;SDS011;13153;52.316;21.166;2022-11-20T11:21:47;61.10;;;31.73;;
25207;SDS011;13153;52.316;21.166;2022-11-20T11:24:26;62.75;;;32.53;;
25207;SDS011;13153;52.316;21.166;2022-11-20T11:26:58;65.25;;;32.08;;
25207;SDS011;13153;52.316;21.166;2022-11-20T11:29:31;64.22;;;32.97;;
25207;SDS011;13153;52.316;21.166;2022-11-20T11:34:42;63.60;;;33.17;;
25207;SDS011;13153;52.316;21.166;2022-11-20T11:37:18;56.13;;;29.35;;
25207;SDS011;13153;52.316;21.166;2022-11-20T11:39:49;68.15;;;32.35;;
25207;SDS011;13153;52.316;21.166;2022-11-20T11:42:16;63.35;;;31.63;;
25207;SDS011;13153;52.316;21.166;2022-11-20T11:44:44;61.00;;;31.80;;
25207;SDS011;13153;52.316;21.166;2022-11-20T11:47:42;67.55;;;32.90;;
25207;SDS011;13153;52.316;21.166;2022-11-20T11:52:48;64.28;;;33.00;;
25207;SDS011;13153;52.316;21.166;2022-11-20T12:07:21;62.25;;;31.77;;
25207;SDS011;13153;52.316;21.166;2022-11-20T12:12:54;63.80;;;31.38;;
25207;SDS011;13153;52.316;21.166;2022-11-20T12:15:29;73.65;;;33.80;;
25207;SDS011;13153;52.316;21.166;2022-11-20T12:17:59;68.70;;;34.80;;
25207;SDS011;13153;52.316;21.166;2022-11-20T12:20:30;61.22;;;31.63;;
25207;SDS011;13153;52.316;21.166;2022-11-20T12:23:15;67.03;;;34.00;;
25207;SDS011;13153;52.316;21.166;2022-11-20T12:25:54;65.43;;;31.85;;
25207;SDS011;13153;52.316;21.166;2022-11-20T12:43:29;62.67;;;29.95;;
25207;SDS011;13153;52.316;21.166;2022-11-20T12:46:32;64.07;;;31.15;;
25207;SDS011;13153;52.316;21.166;2022-11-20T12:52:38;66.25;;;31.27;;
25207;SDS011;13153;52.316;21.166;2022-11-20T12:55:16;76.63;;;35.03;;
25207;SDS011;13153;52.316;21.166;2022-11-20T12:58:01;64.85;;;32.10;;
25207;SDS011;13153;52.316;21.166;2022-11-20T13:00:36;65.13;;;32.50;;
25207;SDS011;13153;52.316;21.166;2022-11-20T13:03:36;95.40;;;42.38;;
25207;SDS011;13153;52.316;21.166;2022-11-20T13:06:22;67.00;;;31.90;;
25207;SDS011;13153;52.316;21.166;2022-11-20T13:08:53;60.28;;;30.42;;
25207;SDS011;13153;52.316;21.166;2022-11-20T13:17:02;64.53;;;31.77;;
25207;SDS011;13153;52.316;21.166;2022-11-20T13:19:58;67.05;;;32.55;;
25207;SDS011;13153;52.316;21.166;2022-11-20T13:22:28;64.35;;;31.90;;
25207;SDS011;13153;52.316;21.166;2022-11-20T13:27:59;67.38;;;34.65;;
25207;SDS011;13153;52.316;21.166;2022-11-20T13:30:34;68.57;;;34.00;;
25207;SDS011;13153;52.316;21.166;2022-11-20T13:33:04;65.45;;;32.55;;
25207;SDS011;13153;52.316;21.166;2022-11-20T13:35:54;65.85;;;32.67;;
25207;SDS011;13153;52.316;21.166;2022-11-20T13:38:48;60.40;;;31.67;;
25207;SDS011;13153;52.316;21.166;2022-11-20T13:41:27;63.20;;;30.73;;
25207;SDS011;13153;52.316;21.166;2022-11-20T13:44:09;58.85;;;30.30;;
25207;SDS011;13153;52.316;21.166;2022-11-20T13:46:50;59.17;;;31.08;;
25207;SDS011;13153;52.316;21.166;2022-11-20T13:55:11;60.72;;;30.52;;
25207;SDS011;13153;52.316;21.166;2022-11-20T13:58:30;64.55;;;31.42;;
25207;SDS011;13153;52.316;21.166;2022-11-20T14:01:21;64.80;;;31.08;;
25207;SDS011;13153;52.316;21.166;2022-11-20T14:08:55;66.03;;;32.40;;
25207;SDS011;13153;52.316;21.166;2022-11-20T14:11:23;66.45;;;32.30;;
25207;SDS011;13153;52.316;21.166;2022-11-20T14:17:05;63.55;;;32.35;;
25207;SDS011;13153;52.316;21.166;2022-11-20T14:19:33;61.40;;;31.42;;
25207;SDS011;13153;52.316;21.166;2022-11-20T14:24:47;60.35;;;31.90;;
25207;SDS011;13153;52.316;21.166;2022-11-20T14:27:15;68.75;;;33.03;;
25207;SDS011;13153;52.316;21.166;2022-11-20T14:29:45;70.05;;;33.50;;
25207;SDS011;13153;52.316;21.166;2022-11-20T14:32:15;65.78;;;35.20;;
25207;SDS011;13153;52.316;21.166;2022-11-20T14:34:50;75.03;;;36.53;;
25207;SDS011;13153;52.316;21.166;2022-11-20T14:37:20;74.13;;;35.20;;
25207;SDS011;13153;52.316;21.166;2022-11-20T14:39:51;79.00;;;36.38;;
25207;SDS011;13153;52.316;21.166;2022-11-20T14:42:23;86.50;;;37.55;;
25207;SDS011;13153;52.316;21.166;2022-11-20T14:44:52;90.97;;;38.75;;
25207;SDS011;13153;52.316;21.166;2022-11-20T14:47:25;73.30;;;35.35;;
25207;SDS011;13153;52.316;21.166;2022-11-20T14:49:56;69.60;;;33.85;;
25207;SDS011;13153;52.316;21.166;2022-11-20T14:52:25;69.95;;;32.75;;
25207;SDS011;13153;52.316;21.166;2022-11-20T14:54:56;66.80;;;30.77;;
25207;SDS011;13153;52.316;21.166;2022-11-20T14:57:30;73.70;;;32.73;;
25207;SDS011;13153;52.316;21.166;2022-11-20T15:02:43;73.05;;;35.13;;
25207;SDS011;13153;52.316;21.166;2022-11-20T15:05:12;70.95;;;33.97;;
25207;SDS011;13153;52.316;21.166;2022-11-20T15:07:40;72.90;;;34.30;;
25207;SDS011;13153;52.316;21.166;2022-11-20T15:10:19;84.05;;;36.03;;
25207;SDS011;13153;52.316;21.166;2022-11-20T15:12:54;90.25;;;35.40;;
25207;SDS011;13153;52.316;21.166;2022-11-20T15:18:21;79.57;;;35.47;;
25207;SDS011;13153;52.316;21.166;2022-11-20T15:21:03;77.60;;;36.30;;
25207;SDS011;13153;52.316;21.166;2022-11-20T15:23:37;76.07;;;37.10;;
25207;SDS011;13153;52.316;21.166;2022-11-20T15:26:06;74.53;;;36.80;;
25207;SDS011;13153;52.316;21.166;2022-11-20T15:28:37;77.90;;;37.95;;
25207;SDS011;13153;52.316;21.166;2022-11-20T15:31:09;80.28;;;38.17;;
25207;SDS011;13153;52.316;21.166;2022-11-20T15:33:37;84.22;;;38.90;;
25207;SDS011;13153;52.316;21.166;2022-11-20T15:36:03;81.78;;;39.30;;
25207;SDS011;13153;52.316;21.166;2022-11-20T15:38:29;79.75;;;40.03;;
25207;SDS011;13153;52.316;21.166;2022-11-20T15:40:55;78.93;;;40.25;;
25207;SDS011;13153;52.316;21.166;2022-11-20T15:43:22;82.22;;;39.17;;
25207;SDS011;13153;52.316;21.166;2022-11-20T15:45:49;78.57;;;38.22;;
25207;SDS011;13153;52.316;21.166;2022-11-20T15:48:29;79.05;;;38.83;;
25207;SDS011;13153;52.316;21.166;2022-11-20T15:53:34;79.10;;;37.47;;
25207;SDS011;13153;52.316;21.166;2022-11-20T15:56:01;80.82;;;38.53;;
25207;SDS011;13153;52.316;21.166;2022-11-20T15:58:27;78.60;;;38.20;;
25207;SDS011;13153;52.316;21.166;2022-11-20T16:00:53;82.68;;;39.00;;
25207;SDS011;13153;52.316;21.166;2022-11-20T16:03:19;81.57;;;37.45;;
25207;SDS011;13153;52.316;21.166;2022-11-20T16:05:45;92.95;;;42.17;;
25207;SDS011;13153;52.316;21.166;2022-11-20T16:08:11;84.57;;;39.63;;
25207;SDS011;13153;52.316;21.166;2022-11-20T16:10:37;83.22;;;39.70;;
25207;SDS011;13153;52.316;21.166;2022-11-20T16:13:04;83.82;;;39.80;;